sensor_id;sensor_type;location;lat;lon;timestamp;noise_LAeq;noise_LA_min;noise_LA_max;noise_LA01;noise_LA95
69620;Laerm;57654;51.434;5.984;2024-03-29T00:00:01;35.01;27.01;48.01;;
69620;Laerm;57654;51.434;5.984;2024-03-29T00:00:12;34.60;27.08;48.00;;
69620;Laerm;57654;51.434;5.984;2024-03-29T00:00:23;37.43;27.48;48.59;;
69620;Laerm;57654;51.434;5.984;2024-03-29T00:00:33;46.48;41.22;49.79;;
69620;Laerm;57654;51.434;5.984;2024-03-29T00:00:44;46.25;39.17;50.57;;
69620;Laerm;57654;51.434;5.984;2024-03-29T00:00:55;37.58;27.44;52.26;;
69620;Laerm;57654;51.434;5.984;2024-03-29T00:01:05;39.51;35.77;48.85;;
69620;Laerm;57654;51.434;5.984;2024-03-29T00:01:15;38.52;35.09;48.67;;
69620;Laerm;57654;51.434;5.984;2024-03-29T00:01:25;37.99;34.67;47.48;;
69620;Laerm;57654;51.434;5.984;2024-03-29T00:01:36;38.75;35.06;48.07;;
69620;Laerm;57654;51.434;5.984;2024-03-29T00:01:46;38.30;35.00;48.36;;
69620;Laerm;57654;51.434;5.984;2024-03-29T00:01:56;38.16;34.23;48.72;;
69620;Laerm;57654;51.434;5.984;2024-03-29T00:02:07;37.90;34.08;48.62;;
69620;Laerm;57654;51.434;5.984;2024-03-29T00:02:18;38.00;34.82;47.54;;
69620;Laerm;57654;51.434;5.984;2024-03-29T00:02:28;38.32;35.30;47.77;;
69620;Laerm;57654;51.434;5.984;2024-03-29T00:02:38;38.41;34.89;48.09;;
69620;Laerm;57654;51.434;5.984;2024-03-29T00:02:48;38.32;35.37;47.93;;
69620;Laerm;57654;51.434;5.984;2024-03-29T00:02:59;38.73;35.03;47.94;;
69620;Laerm;57654;51.434;5.984;2024-03-29T00:03:09;38.71;35.58;49.40;;
69620;Laerm;57654;51.434;5.984;2024-03-29T00:03:19;38.32;35.51;46.84;;
69620;Laerm;57654;51.434;5.984;2024-03-29T00:03:30;38.50;35.67;47.71;;
69620;Laerm;57654;51.434;5.984;2024-03-29T00:03:40;38.81;35.28;48.98;;
69620;Laerm;57654;51.434;5.984;2024-03-29T00:03:50;38.48;35.47;47.58;;
69620;Laerm;57654;51.434;5.984;2024-03-29T00:04:03;38.49;34.82;48.29;;
69620;Laerm;57654;51.434;5.984;2024-03-29T00:04:13;38.47;35.08;48.75;;
69620;Laerm;57654;51.434;5.984;2024-03-29T00:04:23;37.80;34.86;46.39;;
69620;Laerm;57654;51.434;5.984;2024-03-29T00:04:34;38.06;34.63;48.24;;
69620;Laerm;57654;51.434;5.984;2024-03-29T00:04:44;37.69;34.38;47.71;;
69620;Laerm;57654;51.434;5.984;2024-03-29T00:04:54;37.94;34.39;49.04;;
69620;Laerm;57654;51.434;5.984;2024-03-29T00:05:04;37.68;33.86;48.43;;
69620;Laerm;57654;51.434;5.984;2024-03-29T00:05:17;37.12;33.96;46.04;;
69620;Laerm;57654;51.434;5.984;2024-03-29T00:05:27;37.54;33.66;48.61;;
69620;Laerm;57654;51.434;5.984;2024-03-29T00:05:37;37.46;33.54;48.03;;
69620;Laerm;57654;51.434;5.984;2024-03-29T00:05:48;37.57;33.56;48.64;;
69620;Laerm;57654;51.434;5.984;2024-03-29T00:05:58;37.49;33.61;49.61;;
69620;Laerm;57654;51.434;5.984;2024-03-29T00:06:08;37.83;33.55;49.77;;
69620;Laerm;57654;51.434;5.984;2024-03-29T00:06:19;36.90;33.40;46.56;;
69620;Laerm;57654;51.434;5.984;2024-03-29T00:06:29;37.58;33.49;48.14;;
69620;Laerm;57654;51.434;5.984;2024-03-29T00:06:39;37.32;33.65;49.45;;
69620;Laerm;57654;51.434;5.984;2024-03-29T00:06:50;37.37;33.15;47.85;;
69620;Laerm;57654;51.434;5.984;2024-03-29T00:07:00;37.52;33.06;48.72;;
69620;Laerm;57654;51.434;5.984;2024-03-29T00:07:10;37.40;33.49;48.05;;
69620;Laerm;57654;51.434;5.984;2024-03-29T00:07:20;37.03;33.46;47.64;;
69620;Laerm;57654;51.434;5.984;2024-03-29T00:07:30;37.36;33.37;48.49;;
69620;Laerm;57654;51.434;5.984;2024-03-29T00:07:41;37.32;33.28;48.57;;
69620;Laerm;57654;51.434;5.984;2024-03-29T00:07:51;37.21;33.65;48.29;;
69620;Laerm;57654;51.434;5.984;2024-03-29T00:08:01;37.63;33.52;48.43;;
69620;Laerm;57654;51.434;5.984;2024-03-29T00:08:12;36.96;33.20;46.13;;
69620;Laerm;57654;51.434;5.984;2024-03-29T00:08:22;37.21;33.57;46.95;;
69620;Laerm;57654;51.434;5.984;2024-03-29T00:08:32;37.50;33.59;47.97;;
69620;Laerm;57654;51.434;5.984;2024-03-29T00:08:43;37.49;33.92;49.16;;
69620;Laerm;57654;51.434;5.984;2024-03-29T00:08:53;37.32;33.87;48.22;;
69620;Laerm;57654;51.434;5.984;2024-03-29T00:09:03;36.94;27.40;48.56;;
69620;Laerm;57654;51.434;5.984;2024-03-29T00:09:13;34.49;27.49;46.19;;
69620;Laerm;57654;51.434;5.984;2024-03-29T00:09:24;34.14;27.29;45.99;;
69620;Laerm;57654;51.434;5.984;2024-03-29T00:09:34;34.51;27.10;47.53;;
69620;Laerm;57654;51.434;5.984;2024-03-29T00:09:44;35.14;26.84;48.88;;
69620;Laerm;57654;51.434;5.984;2024-03-29T00:09:54;34.93;27.33;48.37;;
69620;Laerm;57654;51.434;5.984;2024-03-29T00:10:05;35.16;27.21;49.54;;
69620;Laerm;57654;51.434;5.984;2024-03-29T00:10:15;34.45;27.19;47.64;;
69620;Laerm;57654;51.434;5.984;2024-03-29T00:10:25;34.23;27.12;46.03;;
69620;Laerm;57654;51.434;5.984;2024-03-29T00:10:35;34.66;27.17;49.00;;
69620;Laerm;57654;51.434;5.984;2024-03-29T00:10:48;34.96;26.78;48.00;;
69620;Laerm;57654;51.434;5.984;2024-03-29T00:10:58;35.31;26.79;48.56;;
69620;Laerm;57654;51.434;5.984;2024-03-29T00:11:09;35.18;27.11;48.98;;
69620;Laerm;57654;51.434;5.984;2024-03-29T00:11:19;34.31;26.99;47.06;;
69620;Laerm;57654;51.434;5.984;2024-03-29T00:11:29;34.79;27.19;46.86;;
69620;Laerm;57654;51.434;5.984;2024-03-29T00:11:41;34.79;26.94;48.54;;
69620;Laerm;57654;51.434;5.984;2024-03-29T00:11:51;35.48;26.74;48.69;;
69620;Laerm;57654;51.434;5.984;2024-03-29T00:12:01;35.31;26.99;49.27;;
69620;Laerm;57654;51.434;5.984;2024-03-29T00:12:11;34.28;26.73;46.96;;
69620;Laerm;57654;51.434;5.984;2024-03-29T00:12:22;34.14;26.95;47.47;;
69620;Laerm;57654;51.434;5.984;2024-03-29T00:12:32;34.47;26.87;46.45;;
69620;Laerm;57654;51.434;5.984;2024-03-29T00:12:42;35.07;26.85;49.15;;
69620;Laerm;57654;51.434;5.984;2024-03-29T00:12:52;35.16;26.82;47.46;;
69620;Laerm;57654;51.434;5.984;2024-03-29T00:13:03;35.16;26.99;49.42;;
69620;Laerm;57654;51.434;5.984;2024-03-29T00:13:13;35.07;27.04;46.61;;
69620;Laerm;57654;51.434;5.984;2024-03-29T00:13:23;34.40;27.14;46.47;;
69620;Laerm;57654;51.434;5.984;2024-03-29T00:13:33;35.03;26.89;48.74;;
69620;Laerm;57654;51.434;5.984;2024-03-29T00:13:45;34.77;26.80;48.75;;
69620;Laerm;57654;51.434;5.984;2024-03-29T00:13:55;34.81;26.87;48.22;;
69620;Laerm;57654;51.434;5.984;2024-03-29T00:14:05;35.53;26.76;48.55;;
69620;Laerm;57654;51.434;5.984;2024-03-29T00:14:15;34.26;27.07;46.48;;
69620;Laerm;57654;51.434;5.984;2024-03-29T00:14:25;34.48;27.02;47.03;;
69620;Laerm;57654;51.434;5.984;2024-03-29T00:14:36;34.66;26.97;46.77;;
69620;Laerm;57654;51.434;5.984;2024-03-29T00:14:46;35.07;27.06;49.26;;
69620;Laerm;57654;51.434;5.984;2024-03-29T00:14:58;35.44;26.84;49.35;;
69620;Laerm;57654;51.434;5.984;2024-03-29T00:15:08;34.82;26.99;48.04;;
69620;Laerm;57654;51.434;5.984;2024-03-29T00:15:19;34.46;26.95;46.44;;
69620;Laerm;57654;51.434;5.984;2024-03-29T00:15:31;34.71;27.08;47.45;;
69620;Laerm;57654;51.434;5.984;2024-03-29T00:15:41;42.82;28.27;50.84;;
69620;Laerm;57654;51.434;5.984;2024-03-29T00:15:51;46.75;44.35;51.42;;
69620;Laerm;57654;51.434;5.984;2024-03-29T00:16:02;45.59;39.03;50.65;;
69620;Laerm;57654;51.434;5.984;2024-03-29T00:16:13;36.62;27.77;48.05;;
69620;Laerm;57654;51.434;5.984;2024-03-29T00:16:23;34.66;27.27;46.93;;
69620;Laerm;57654;51.434;5.984;2024-03-29T00:16:35;35.79;27.04;48.84;;
69620;Laerm;57654;51.434;5.984;2024-03-29T00:16:45;36.35;26.89;50.67;;
69620;Laerm;57654;51.434;5.984;2024-03-29T00:16:55;35.57;27.01;49.36;;
69620;Laerm;57654;51.434;5.984;2024-03-29T00:17:07;35.91;26.87;50.03;;
69620;Laerm;57654;51.434;5.984;2024-03-29T00:17:17;35.13;27.09;48.06;;
69620;Laerm;57654;51.434;5.984;2024-03-29T00:17:28;35.33;27.05;48.60;;
69620;Laerm;57654;51.434;5.984;2024-03-29T00:17:38;35.28;27.09;49.59;;
69620;Laerm;57654;51.434;5.984;2024-03-29T00:17:48;35.73;27.12;50.02;;
69620;Laerm;57654;51.434;5.984;2024-03-29T00:17:59;36.18;26.89;51.28;;
69620;Laerm;57654;51.434;5.984;2024-03-29T00:18:09;35.94;26.78;50.76;;
69620;Laerm;57654;51.434;5.984;2024-03-29T00:18:19;35.57;26.89;49.87;;
69620;Laerm;57654;51.434;5.984;2024-03-29T00:18:29;35.86;27.04;48.88;;
69620;Laerm;57654;51.434;5.984;2024-03-29T00:18:40;35.42;26.93;48.49;;
69620;Laerm;57654;51.434;5.984;2024-03-29T00:18:50;35.13;27.07;48.98;;
69620;Laerm;57654;51.434;5.984;2024-03-29T00:19:00;35.84;26.92;49.81;;
69620;Laerm;57654;51.434;5.984;2024-03-29T00:19:10;36.19;26.87;49.88;;
69620;Laerm;57654;51.434;5.984;2024-03-29T00:19:20;35.06;26.86;47.88;;
69620;Laerm;57654;51.434;5.984;2024-03-29T00:19:31;35.06;26.84;48.72;;
69620;Laerm;57654;51.434;5.984;2024-03-29T00:19:42;35.78;27.03;50.42;;
69620;Laerm;57654;51.434;5.984;2024-03-29T00:19:52;35.58;26.81;49.97;;
69620;Laerm;57654;51.434;5.984;2024-03-29T00:20:02;35.68;27.08;49.49;;
69620;Laerm;57654;51.434;5.984;2024-03-29T00:20:13;34.62;26.95;48.20;;
69620;Laerm;57654;51.434;5.984;2024-03-29T00:20:24;34.77;26.81;47.17;;
69620;Laerm;57654;51.434;5.984;2024-03-29T00:20:34;34.93;27.00;48.26;;
69620;Laerm;57654;51.434;5.984;2024-03-29T00:20:44;35.75;27.04;49.32;;
69620;Laerm;57654;51.434;5.984;2024-03-29T00:20:54;35.16;27.14;48.92;;
69620;Laerm;57654;51.434;5.984;2024-03-29T00:21:05;36.01;27.04;49.98;;
69620;Laerm;57654;51.434;5.984;2024-03-29T00:21:15;35.06;26.91;48.25;;
69620;Laerm;57654;51.434;5.984;2024-03-29T00:21:25;34.70;26.88;46.26;;
69620;Laerm;57654;51.434;5.984;2024-03-29T00:21:35;34.52;26.96;47.34;;
69620;Laerm;57654;51.434;5.984;2024-03-29T00:21:46;35.45;26.82;48.71;;
69620;Laerm;57654;51.434;5.984;2024-03-29T00:21:56;35.66;26.72;49.30;;
69620;Laerm;57654;51.434;5.984;2024-03-29T00:22:06;35.50;27.09;50.06;;
69620;Laerm;57654;51.434;5.984;2024-03-29T00:22:16;35.50;26.76;49.13;;
69620;Laerm;57654;51.434;5.984;2024-03-29T00:22:27;34.62;27.13;47.00;;
69620;Laerm;57654;51.434;5.984;2024-03-29T00:22:38;35.52;27.02;49.60;;
69620;Laerm;57654;51.434;5.984;2024-03-29T00:22:48;35.17;27.03;48.79;;
69620;Laerm;57654;51.434;5.984;2024-03-29T00:22:58;35.59;26.86;49.11;;
69620;Laerm;57654;51.434;5.984;2024-03-29T00:23:08;35.52;26.90;49.66;;
69620;Laerm;57654;51.434;5.984;2024-03-29T00:23:18;34.49;27.03;46.71;;
69620;Laerm;57654;51.434;5.984;2024-03-29T00:23:29;34.70;27.04;47.41;;
69620;Laerm;57654;51.434;5.984;2024-03-29T00:23:40;35.13;26.89;48.30;;
69620;Laerm;57654;51.434;5.984;2024-03-29T00:23:50;35.60;27.10;49.06;;
69620;Laerm;57654;51.434;5.984;2024-03-29T00:24:01;35.08;26.97;49.29;;
69620;Laerm;57654;51.434;5.984;2024-03-29T00:24:11;35.09;26.83;48.79;;
69620;Laerm;57654;51.434;5.984;2024-03-29T00:24:21;35.00;27.02;48.16;;
69620;Laerm;57654;51.434;5.984;2024-03-29T00:24:31;34.52;26.86;47.19;;
69620;Laerm;57654;51.434;5.984;2024-03-29T00:24:43;35.43;26.80;48.84;;
69620;Laerm;57654;51.434;5.984;2024-03-29T00:24:53;34.85;26.97;48.52;;
69620;Laerm;57654;51.434;5.984;2024-03-29T00:25:03;36.11;26.94;49.14;;
69620;Laerm;57654;51.434;5.984;2024-03-29T00:25:14;34.95;26.98;47.86;;
69620;Laerm;57654;51.434;5.984;2024-03-29T00:25:24;35.05;27.02;48.91;;
69620;Laerm;57654;51.434;5.984;2024-03-29T00:25:34;35.15;26.94;48.26;;
69620;Laerm;57654;51.434;5.984;2024-03-29T00:25:44;35.07;26.94;47.62;;
69620;Laerm;57654;51.434;5.984;2024-03-29T00:25:54;35.32;26.81;48.24;;
69620;Laerm;57654;51.434;5.984;2024-03-29T00:26:08;35.67;26.94;49.93;;
69620;Laerm;57654;51.434;5.984;2024-03-29T00:26:18;35.01;26.85;47.34;;
69620;Laerm;57654;51.434;5.984;2024-03-29T00:26:28;34.77;26.68;48.99;;
69620;Laerm;57654;51.434;5.984;2024-03-29T00:26:38;35.81;27.02;50.05;;
69620;Laerm;57654;51.434;5.984;2024-03-29T00:26:49;35.18;26.84;48.90;;
69620;Laerm;57654;51.434;5.984;2024-03-29T00:26:59;35.38;26.83;48.99;;
69620;Laerm;57654;51.434;5.984;2024-03-29T00:27:09;35.52;26.73;49.76;;
69620;Laerm;57654;51.434;5.984;2024-03-29T00:27:19;34.30;26.90;46.63;;
69620;Laerm;57654;51.434;5.984;2024-03-29T00:27:29;34.87;26.78;48.14;;
69620;Laerm;57654;51.434;5.984;2024-03-29T00:27:40;35.20;27.03;48.53;;
69620;Laerm;57654;51.434;5.984;2024-03-29T00:27:50;34.99;26.81;48.11;;
69620;Laerm;57654;51.434;5.984;2024-03-29T00:28:01;35.40;27.00;48.65;;
69620;Laerm;57654;51.434;5.984;2024-03-29T00:28:11;35.27;26.85;47.26;;
69620;Laerm;57654;51.434;5.984;2024-03-29T00:28:21;34.68;26.68;47.31;;
69620;Laerm;57654;51.434;5.984;2024-03-29T00:28:32;34.43;26.96;47.47;;
69620;Laerm;57654;51.434;5.984;2024-03-29T00:28:42;35.09;26.72;47.92;;
69620;Laerm;57654;51.434;5.984;2024-03-29T00:28:52;35.53;27.01;48.08;;
69620;Laerm;57654;51.434;5.984;2024-03-29T00:29:02;35.39;26.87;49.83;;
69620;Laerm;57654;51.434;5.984;2024-03-29T00:29:13;34.81;26.84;48.36;;
69620;Laerm;57654;51.434;5.984;2024-03-29T00:29:23;34.63;26.79;47.03;;
69620;Laerm;57654;51.434;5.984;2024-03-29T00:29:34;35.27;26.75;48.45;;
69620;Laerm;57654;51.434;5.984;2024-03-29T00:29:44;34.95;26.79;47.94;;
69620;Laerm;57654;51.434;5.984;2024-03-29T00:29:56;34.86;27.04;48.35;;
69620;Laerm;57654;51.434;5.984;2024-03-29T00:30:07;35.17;27.01;48.44;;
69620;Laerm;57654;51.434;5.984;2024-03-29T00:30:17;35.41;26.97;49.67;;
69620;Laerm;57654;51.434;5.984;2024-03-29T00:30:27;34.89;27.12;48.83;;
69620;Laerm;57654;51.434;5.984;2024-03-29T00:30:38;34.91;27.07;48.38;;
69620;Laerm;57654;51.434;5.984;2024-03-29T00:30:48;35.36;27.00;47.84;;
69620;Laerm;57654;51.434;5.984;2024-03-29T00:30:58;36.01;26.84;49.93;;
69620;Laerm;57654;51.434;5.984;2024-03-29T00:31:08;35.38;27.09;50.01;;
69620;Laerm;57654;51.434;5.984;2024-03-29T00:31:18;34.79;26.90;48.90;;
69620;Laerm;57654;51.434;5.984;2024-03-29T00:31:29;34.54;26.99;47.68;;
69620;Laerm;57654;51.434;5.984;2024-03-29T00:31:39;35.54;26.80;49.58;;
69620;Laerm;57654;51.434;5.984;2024-03-29T00:31:50;35.37;27.04;48.65;;
69620;Laerm;57654;51.434;5.984;2024-03-29T00:32:00;35.00;26.86;48.31;;
69620;Laerm;57654;51.434;5.984;2024-03-29T00:32:11;34.77;26.96;49.13;;
69620;Laerm;57654;51.434;5.984;2024-03-29T00:32:21;34.63;26.62;47.95;;
69620;Laerm;57654;51.434;5.984;2024-03-29T00:32:31;34.90;26.78;47.64;;
69620;Laerm;57654;51.434;5.984;2024-03-29T00:32:42;35.27;27.02;49.73;;
69620;Laerm;57654;51.434;5.984;2024-03-29T00:32:52;34.87;26.86;48.23;;
69620;Laerm;57654;51.434;5.984;2024-03-29T00:33:02;35.73;26.91;49.20;;
69620;Laerm;57654;51.434;5.984;2024-03-29T00:33:12;34.59;26.78;47.45;;
69620;Laerm;57654;51.434;5.984;2024-03-29T00:33:23;34.35;27.01;46.17;;
69620;Laerm;57654;51.434;5.984;2024-03-29T00:33:33;34.80;26.97;47.40;;
69620;Laerm;57654;51.434;5.984;2024-03-29T00:33:43;35.26;26.86;47.74;;
69620;Laerm;57654;51.434;5.984;2024-03-29T00:33:53;35.44;27.06;48.13;;
69620;Laerm;57654;51.434;5.984;2024-03-29T00:34:03;35.27;26.98;48.95;;
69620;Laerm;57654;51.434;5.984;2024-03-29T00:34:14;34.26;27.07;46.45;;
69620;Laerm;57654;51.434;5.984;2024-03-29T00:34:24;34.76;26.80;47.25;;
69620;Laerm;57654;51.434;5.984;2024-03-29T00:34:34;35.04;27.04;47.99;;
69620;Laerm;57654;51.434;5.984;2024-03-29T00:34:44;34.76;26.99;47.82;;
69620;Laerm;57654;51.434;5.984;2024-03-29T00:34:55;35.27;27.11;47.65;;
69620;Laerm;57654;51.434;5.984;2024-03-29T00:35:08;35.53;27.04;48.62;;
69620;Laerm;57654;51.434;5.984;2024-03-29T00:35:18;34.84;26.95;47.77;;
69620;Laerm;57654;51.434;5.984;2024-03-29T00:35:30;34.90;26.84;49.17;;
69620;Laerm;57654;51.434;5.984;2024-03-29T00:35:41;35.27;26.85;48.46;;
69620;Laerm;57654;51.434;5.984;2024-03-29T00:35:51;35.64;27.19;48.72;;
69620;Laerm;57654;51.434;5.984;2024-03-29T00:36:02;35.15;27.02;48.45;;
69620;Laerm;57654;51.434;5.984;2024-03-29T00:36:12;35.47;26.79;48.79;;
69620;Laerm;57654;51.434;5.984;2024-03-29T00:36:22;34.62;26.89;47.80;;
69620;Laerm;57654;51.434;5.984;2024-03-29T00:36:32;34.88;27.11;47.65;;
69620;Laerm;57654;51.434;5.984;2024-03-29T00:36:43;35.09;26.89;47.96;;
69620;Laerm;57654;51.434;5.984;2024-03-29T00:36:53;35.95;26.97;49.73;;
69620;Laerm;57654;51.434;5.984;2024-03-29T00:37:03;35.59;27.03;49.48;;
69620;Laerm;57654;51.434;5.984;2024-03-29T00:37:14;34.59;26.86;46.34;;
69620;Laerm;57654;51.434;5.984;2024-03-29T00:37:24;34.49;26.88;47.03;;
69620;Laerm;57654;51.434;5.984;2024-03-29T00:37:34;34.49;26.43;46.13;;
69620;Laerm;57654;51.434;5.984;2024-03-29T00:37:44;35.36;27.01;47.54;;
69620;Laerm;57654;51.434;5.984;2024-03-29T00:37:54;35.11;27.05;48.61;;
69620;Laerm;57654;51.434;5.984;2024-03-29T00:38:05;39.93;27.29;52.76;;
69620;Laerm;57654;51.434;5.984;2024-03-29T00:38:15;39.58;35.99;49.92;;
69620;Laerm;57654;51.434;5.984;2024-03-29T00:38:25;38.77;35.61;48.04;;
69620;Laerm;57654;51.434;5.984;2024-03-29T00:38:35;39.23;35.61;48.14;;
69620;Laerm;57654;51.434;5.984;2024-03-29T00:38:46;38.64;35.30;49.28;;
69620;Laerm;57654;51.434;5.984;2024-03-29T00:38:56;38.28;35.05;49.25;;
69620;Laerm;57654;51.434;5.984;2024-03-29T00:39:06;38.52;34.88;49.88;;
69620;Laerm;57654;51.434;5.984;2024-03-29T00:39:21;37.98;34.75;48.28;;
69620;Laerm;57654;51.434;5.984;2024-03-29T00:39:31;38.41;35.18;48.41;;
69620;Laerm;57654;51.434;5.984;2024-03-29T00:39:41;38.49;35.09;49.08;;
69620;Laerm;57654;51.434;5.984;2024-03-29T00:39:52;38.38;34.72;49.08;;
69620;Laerm;57654;51.434;5.984;2024-03-29T00:40:02;38.27;34.97;48.96;;
69620;Laerm;57654;51.434;5.984;2024-03-29T00:40:12;38.30;34.96;49.19;;
69620;Laerm;57654;51.434;5.984;2024-03-29T00:40:23;38.08;34.82;48.15;;
69620;Laerm;57654;51.434;5.984;2024-03-29T00:40:33;38.15;34.98;47.92;;
69620;Laerm;57654;51.434;5.984;2024-03-29T00:40:45;38.50;34.98;49.77;;
69620;Laerm;57654;51.434;5.984;2024-03-29T00:40:55;38.53;34.22;50.02;;
69620;Laerm;57654;51.434;5.984;2024-03-29T00:41:05;38.19;34.27;48.50;;
69620;Laerm;57654;51.434;5.984;2024-03-29T00:41:16;37.90;34.03;48.12;;
69620;Laerm;57654;51.434;5.984;2024-03-29T00:41:26;37.80;34.15;47.91;;
69620;Laerm;57654;51.434;5.984;2024-03-29T00:41:36;37.87;34.03;48.10;;
69620;Laerm;57654;51.434;5.984;2024-03-29T00:41:46;37.84;34.13;48.45;;
69620;Laerm;57654;51.434;5.984;2024-03-29T00:41:56;38.20;33.97;49.91;;
69620;Laerm;57654;51.434;5.984;2024-03-29T00:42:07;37.69;34.14;47.94;;
69620;Laerm;57654;51.434;5.984;2024-03-29T00:42:19;37.34;33.80;46.75;;
69620;Laerm;57654;51.434;5.984;2024-03-29T00:42:29;37.32;33.16;47.40;;
69620;Laerm;57654;51.434;5.984;2024-03-29T00:42:40;37.50;33.74;47.07;;
69620;Laerm;57654;51.434;5.984;2024-03-29T00:42:50;37.44;33.71;48.05;;
69620;Laerm;57654;51.434;5.984;2024-03-29T00:43:00;37.72;33.68;48.37;;
69620;Laerm;57654;51.434;5.984;2024-03-29T00:43:11;37.69;33.33;49.12;;
69620;Laerm;57654;51.434;5.984;2024-03-29T00:43:21;37.32;33.50;47.99;;
69620;Laerm;57654;51.434;5.984;2024-03-29T00:43:31;37.43;33.35;47.58;;
69620;Laerm;57654;51.434;5.984;2024-03-29T00:43:41;37.46;33.50;48.48;;
69620;Laerm;57654;51.434;5.984;2024-03-29T00:43:52;37.50;33.73;49.07;;
69620;Laerm;57654;51.434;5.984;2024-03-29T00:44:02;37.59;33.53;49.06;;
69620;Laerm;57654;51.434;5.984;2024-03-29T00:44:13;37.34;33.36;47.35;;
69620;Laerm;57654;51.434;5.984;2024-03-29T00:44:23;37.34;33.55;49.00;;
69620;Laerm;57654;51.434;5.984;2024-03-29T00:44:33;40.70;34.52;49.06;;
69620;Laerm;57654;51.434;5.984;2024-03-29T00:44:43;44.49;41.31;50.92;;
69620;Laerm;57654;51.434;5.984;2024-03-29T00:44:54;45.05;41.15;50.15;;
69620;Laerm;57654;51.434;5.984;2024-03-29T00:45:04;39.89;34.50;49.35;;
69620;Laerm;57654;51.434;5.984;2024-03-29T00:45:14;37.74;33.75;49.01;;
69620;Laerm;57654;51.434;5.984;2024-03-29T00:45:25;37.24;33.94;46.80;;
69620;Laerm;57654;51.434;5.984;2024-03-29T00:45:37;37.91;33.91;48.92;;
69620;Laerm;57654;51.434;5.984;2024-03-29T00:45:48;37.67;33.90;48.10;;
69620;Laerm;57654;51.434;5.984;2024-03-29T00:45:58;37.84;33.81;48.84;;
69620;Laerm;57654;51.434;5.984;2024-03-29T00:46:08;35.26;27.52;48.48;;
69620;Laerm;57654;51.434;5.984;2024-03-29T00:46:18;35.14;27.19;47.85;;
69620;Laerm;57654;51.434;5.984;2024-03-29T00:46:28;35.31;27.13;48.93;;
69620;Laerm;57654;51.434;5.984;2024-03-29T00:46:39;35.28;27.27;49.17;;
69620;Laerm;57654;51.434;5.984;2024-03-29T00:46:49;35.46;27.22;48.19;;
69620;Laerm;57654;51.434;5.984;2024-03-29T00:46:59;36.40;27.09;49.30;;
69620;Laerm;57654;51.434;5.984;2024-03-29T00:47:09;35.21;27.29;48.02;;
69620;Laerm;57654;51.434;5.984;2024-03-29T00:47:20;35.17;27.19;49.19;;
69620;Laerm;57654;51.434;5.984;2024-03-29T00:47:30;34.77;27.24;48.16;;
69620;Laerm;57654;51.434;5.984;2024-03-29T00:47:40;35.44;27.03;49.78;;
69620;Laerm;57654;51.434;5.984;2024-03-29T00:47:50;35.38;27.17;48.29;;
69620;Laerm;57654;51.434;5.984;2024-03-29T00:48:01;35.19;27.16;48.44;;
69620;Laerm;57654;51.434;5.984;2024-03-29T00:48:11;35.33;26.99;48.14;;
69620;Laerm;57654;51.434;5.984;2024-03-29T00:48:21;34.93;27.00;48.46;;
69620;Laerm;57654;51.434;5.984;2024-03-29T00:48:31;34.48;27.22;48.16;;
69620;Laerm;57654;51.434;5.984;2024-03-29T00:48:42;35.50;27.10;48.92;;
69620;Laerm;57654;51.434;5.984;2024-03-29T00:48:54;35.30;27.11;48.16;;
69620;Laerm;57654;51.434;5.984;2024-03-29T00:49:04;35.40;27.20;50.20;;
69620;Laerm;57654;51.434;5.984;2024-03-29T00:49:14;35.18;26.86;48.71;;
69620;Laerm;57654;51.434;5.984;2024-03-29T00:49:24;34.67;26.96;47.63;;
69620;Laerm;57654;51.434;5.984;2024-03-29T00:49:34;34.59;26.76;47.54;;
69620;Laerm;57654;51.434;5.984;2024-03-29T00:49:45;34.79;26.80;47.25;;
69620;Laerm;57654;51.434;5.984;2024-03-29T00:49:55;35.36;26.80;48.62;;
69620;Laerm;57654;51.434;5.984;2024-03-29T00:50:05;35.97;27.00;48.95;;
69620;Laerm;57654;51.434;5.984;2024-03-29T00:50:19;35.35;27.10;49.30;;
69620;Laerm;57654;51.434;5.984;2024-03-29T00:50:30;34.92;26.91;48.05;;
69620;Laerm;57654;51.434;5.984;2024-03-29T00:50:40;35.27;26.87;47.83;;
69620;Laerm;57654;51.434;5.984;2024-03-29T00:50:50;35.10;26.89;48.25;;
69620;Laerm;57654;51.434;5.984;2024-03-29T00:51:01;35.05;27.13;48.66;;
69620;Laerm;57654;51.434;5.984;2024-03-29T00:51:11;35.56;27.05;49.22;;
69620;Laerm;57654;51.434;5.984;2024-03-29T00:51:21;34.71;26.95;47.15;;
69620;Laerm;57654;51.434;5.984;2024-03-29T00:51:31;34.95;26.82;49.10;;
69620;Laerm;57654;51.434;5.984;2024-03-29T00:51:42;35.54;27.15;49.87;;
69620;Laerm;57654;51.434;5.984;2024-03-29T00:51:52;35.01;26.89;48.28;;
69620;Laerm;57654;51.434;5.984;2024-03-29T00:52:03;40.30;28.90;51.90;;
69620;Laerm;57654;51.434;5.984;2024-03-29T00:52:13;43.63;39.66;49.64;;
69620;Laerm;57654;51.434;5.984;2024-03-29T00:52:23;41.78;34.51;49.06;;
69620;Laerm;57654;51.434;5.984;2024-03-29T00:52:34;35.82;27.57;48.89;;
69620;Laerm;57654;51.434;5.984;2024-03-29T00:52:44;35.19;26.92;48.07;;
69620;Laerm;57654;51.434;5.984;2024-03-29T00:52:55;35.67;27.07;48.92;;
69620;Laerm;57654;51.434;5.984;2024-03-29T00:53:05;35.53;27.03;48.94;;
69620;Laerm;57654;51.434;5.984;2024-03-29T00:53:15;34.53;26.72;47.32;;
69620;Laerm;57654;51.434;5.984;2024-03-29T00:53:26;35.21;27.09;48.34;;
69620;Laerm;57654;51.434;5.984;2024-03-29T00:53:36;35.18;27.16;48.56;;
69620;Laerm;57654;51.434;5.984;2024-03-29T00:53:46;36.03;27.18;49.36;;
69620;Laerm;57654;51.434;5.984;2024-03-29T00:53:56;34.93;27.16;47.60;;
69620;Laerm;57654;51.434;5.984;2024-03-29T00:54:06;35.40;26.95;48.52;;
69620;Laerm;57654;51.434;5.984;2024-03-29T00:54:17;35.22;26.84;48.38;;
69620;Laerm;57654;51.434;5.984;2024-03-29T00:54:29;35.37;26.90;48.06;;
69620;Laerm;57654;51.434;5.984;2024-03-29T00:54:39;34.79;27.02;48.26;;
69620;Laerm;57654;51.434;5.984;2024-03-29T00:54:49;35.66;26.96;48.09;;
69620;Laerm;57654;51.434;5.984;2024-03-29T00:55:00;35.52;27.02;48.92;;
69620;Laerm;57654;51.434;5.984;2024-03-29T00:55:10;35.12;26.81;47.72;;
69620;Laerm;57654;51.434;5.984;2024-03-29T00:55:20;35.30;26.87;48.32;;
69620;Laerm;57654;51.434;5.984;2024-03-29T00:55:31;35.22;27.07;48.79;;
69620;Laerm;57654;51.434;5.984;2024-03-29T00:55:41;35.76;26.91;50.32;;
69620;Laerm;57654;51.434;5.984;2024-03-29T00:55:51;35.58;27.13;48.06;;
69620;Laerm;57654;51.434;5.984;2024-03-29T00:56:02;35.09;27.02;48.92;;
69620;Laerm;57654;51.434;5.984;2024-03-29T00:56:12;35.44;27.05;49.01;;
69620;Laerm;57654;51.434;5.984;2024-03-29T00:56:22;34.37;26.97;47.06;;
69620;Laerm;57654;51.434;5.984;2024-03-29T00:56:33;35.03;27.13;47.86;;
69620;Laerm;57654;51.434;5.984;2024-03-29T00:56:43;35.62;27.09;48.56;;
69620;Laerm;57654;51.434;5.984;2024-03-29T00:56:53;35.74;27.07;48.00;;
69620;Laerm;57654;51.434;5.984;2024-03-29T00:57:03;35.86;26.85;49.37;;
69620;Laerm;57654;51.434;5.984;2024-03-29T00:57:14;34.48;27.07;47.34;;
69620;Laerm;57654;51.434;5.984;2024-03-29T00:57:25;34.51;27.05;47.16;;
69620;Laerm;57654;51.434;5.984;2024-03-29T00:57:35;34.96;27.11;48.17;;
69620;Laerm;57654;51.434;5.984;2024-03-29T00:57:46;35.39;27.02;48.94;;
69620;Laerm;57654;51.434;5.984;2024-03-29T00:57:56;35.43;27.04;47.92;;
69620;Laerm;57654;51.434;5.984;2024-03-29T00:58:09;35.51;26.89;50.69;;
69620;Laerm;57654;51.434;5.984;2024-03-29T00:58:19;34.65;26.89;47.09;;